sensor_id;sensor_type;location;lat;lon;timestamp;pressure;altitude;pressure_sealevel;temperature;humidity
48644;BME280;34928;37.302;-121.984;2023-04-16T00:01:22;101332.0;;;27.27;21.30
48644;BME280;34928;37.302;-121.984;2023-04-16T00:11:27;101323.0;;;27.05;22.82
48644;BME280;34928;37.302;-121.984;2023-04-16T00:21:32;101315.0;;;27.68;23.18
48644;BME280;34928;37.302;-121.984;2023-04-16T00:31:37;101321.0;;;27.22;23.08
48644;BME280;34928;37.302;-121.984;2023-04-16T00:41:43;101328.0;;;27.24;23.25
48644;BME280;34928;37.302;-121.984;2023-04-16T00:51:48;101327.0;;;27.55;23.28
48644;BME280;34928;37.302;-121.984;2023-04-16T01:01:52;101330.0;;;27.26;24.57
48644;BME280;34928;37.302;-121.984;2023-04-16T01:11:57;101332.0;;;27.22;23.73
48644;BME280;34928;37.302;-121.984;2023-04-16T01:22:02;101342.0;;;27.25;23.68
48644;BME280;34928;37.302;-121.984;2023-04-16T01:32:07;101343.0;;;26.92;23.59
48644;BME280;34928;37.302;-121.984;2023-04-16T01:42:12;101344.0;;;27.81;23.35
48644;BME280;34928;37.302;-121.984;2023-04-16T01:52:18;101341.0;;;27.46;23.81
48644;BME280;34928;37.302;-121.984;2023-04-16T02:02:23;101345.0;;;27.95;23.80
48644;BME280;34928;37.302;-121.984;2023-04-16T02:12:27;101352.0;;;27.79;23.92
48644;BME280;34928;37.302;-121.984;2023-04-16T02:22:33;101341.0;;;27.36;23.85
48644;BME280;34928;37.302;-121.984;2023-04-16T02:32:38;101348.0;;;27.48;23.78
48644;BME280;34928;37.302;-121.984;2023-04-16T02:42:42;101344.0;;;27.36;24.43
48644;BME280;34928;37.302;-121.984;2023-04-16T02:52:48;101349.0;;;27.68;24.63
48644;BME280;34928;37.302;-121.984;2023-04-16T03:02:52;101345.0;;;27.64;24.80
48644;BME280;34928;37.302;-121.984;2023-04-16T03:12:57;101355.0;;;24.83;28.85
48644;BME280;34928;37.302;-121.984;2023-04-16T03:23:03;101367.0;;;24.88;29.12
48644;BME280;34928;37.302;-121.984;2023-04-16T03:33:07;101377.0;;;24.72;28.73
48644;BME280;34928;37.302;-121.984;2023-04-16T03:43:12;101386.0;;;24.94;28.33
48644;BME280;34928;37.302;-121.984;2023-04-16T03:53:18;101400.0;;;24.36;28.31
48644;BME280;34928;37.302;-121.984;2023-04-16T04:03:23;101402.0;;;24.84;27.30
48644;BME280;34928;37.302;-121.984;2023-04-16T04:13:28;101417.0;;;25.07;27.78
48644;BME280;34928;37.302;-121.984;2023-04-16T04:23:33;101431.0;;;24.33;28.75
48644;BME280;34928;37.302;-121.984;2023-04-16T04:33:38;101444.0;;;24.06;29.29
48644;BME280;34928;37.302;-121.984;2023-04-16T04:43:42;101448.0;;;24.15;28.71
48644;BME280;34928;37.302;-121.984;2023-04-16T04:53:47;101444.0;;;25.24;27.56
48644;BME280;34928;37.302;-121.984;2023-04-16T05:03:52;101453.0;;;24.62;28.23
48644;BME280;34928;37.302;-121.984;2023-04-16T05:13:58;101451.0;;;25.17;27.21
48644;BME280;34928;37.302;-121.984;2023-04-16T05:24:02;101458.0;;;24.45;27.73
48644;BME280;34928;37.302;-121.984;2023-04-16T05:34:07;101456.0;;;25.13;27.78
48644;BME280;34928;37.302;-121.984;2023-04-16T05:44:13;101458.0;;;25.44;27.50
48644;BME280;34928;37.302;-121.984;2023-04-16T05:54:18;101460.0;;;24.87;28.16
48644;BME280;34928;37.302;-121.984;2023-04-16T06:04:22;101458.0;;;24.56;27.83
48644;BME280;34928;37.302;-121.984;2023-04-16T06:14:29;101454.0;;;25.31;27.39
48644;BME280;34928;37.302;-121.984;2023-04-16T06:24:33;101463.0;;;24.67;27.31
48644;BME280;34928;37.302;-121.984;2023-04-16T06:34:38;101464.0;;;24.77;27.94
48644;BME280;34928;37.302;-121.984;2023-04-16T06:44:43;101467.0;;;24.59;28.04
48644;BME280;34928;37.302;-121.984;2023-04-16T06:54:48;101471.0;;;24.23;28.23
48644;BME280;34928;37.302;-121.984;2023-04-16T07:04:52;101478.0;;;24.42;27.63
48644;BME280;34928;37.302;-121.984;2023-04-16T07:14:58;101481.0;;;24.41;27.67
48644;BME280;34928;37.302;-121.984;2023-04-16T07:25:02;101481.0;;;24.11;27.88
48644;BME280;34928;37.302;-121.984;2023-04-16T07:35:08;101486.0;;;25.54;26.84
48644;BME280;34928;37.302;-121.984;2023-04-16T07:45:12;101495.0;;;26.57;25.33
48644;BME280;34928;37.302;-121.984;2023-04-16T07:55:17;101495.0;;;26.62;24.99
48644;BME280;34928;37.302;-121.984;2023-04-16T08:05:22;101488.0;;;26.65;24.90
48644;BME280;34928;37.302;-121.984;2023-04-16T08:15:27;101486.0;;;26.65;24.90
48644;BME280;34928;37.302;-121.984;2023-04-16T08:25:32;101482.0;;;26.58;24.96
48644;BME280;34928;37.302;-121.984;2023-04-16T08:35:37;101476.0;;;26.50;24.99
48644;BME280;34928;37.302;-121.984;2023-04-16T08:45:43;101467.0;;;26.42;24.98
48644;BME280;34928;37.302;-121.984;2023-04-16T08:55:49;101450.0;;;26.28;25.09
48644;BME280;34928;37.302;-121.984;2023-04-16T09:05:53;101441.0;;;26.21;25.15
48644;BME280;34928;37.302;-121.984;2023-04-16T09:15:58;101430.0;;;26.60;25.17
48644;BME280;34928;37.302;-121.984;2023-04-16T09:26:04;101429.0;;;26.32;25.16
48644;BME280;34928;37.302;-121.984;2023-04-16T09:36:07;101426.0;;;26.28;25.09
48644;BME280;34928;37.302;-121.984;2023-04-16T09:46:12;101419.0;;;26.27;25.01
48644;BME280;34928;37.302;-121.984;2023-04-16T09:56:19;101415.0;;;26.17;24.98
48644;BME280;34928;37.302;-121.984;2023-04-16T10:06:29;101407.0;;;25.99;25.12
48644;BME280;34928;37.302;-121.984;2023-04-16T10:16:33;101406.0;;;25.91;25.17
48644;BME280;34928;37.302;-121.984;2023-04-16T10:26:41;101398.0;;;25.88;25.19
48644;BME280;34928;37.302;-121.984;2023-04-16T10:36:49;101402.0;;;26.05;25.16
48644;BME280;34928;37.302;-121.984;2023-04-16T10:46:54;101408.0;;;25.50;25.20
48644;BME280;34928;37.302;-121.984;2023-04-16T10:56:59;101422.0;;;25.78;25.07
48644;BME280;34928;37.302;-121.984;2023-04-16T11:07:16;101424.0;;;25.89;25.10
48644;BME280;34928;37.302;-121.984;2023-04-16T11:17:26;101422.0;;;25.79;25.06
48644;BME280;34928;37.302;-121.984;2023-04-16T11:27:32;101416.0;;;25.73;25.05
48644;BME280;34928;37.302;-121.984;2023-04-16T11:37:38;101432.0;;;25.42;25.12
48644;BME280;34928;37.302;-121.984;2023-04-16T11:47:44;101432.0;;;25.61;25.10
48644;BME280;34928;37.302;-121.984;2023-04-16T11:57:48;101432.0;;;25.79;25.06
48644;BME280;34928;37.302;-121.984;2023-04-16T12:07:52;101433.0;;;25.53;24.95
48644;BME280;34928;37.302;-121.984;2023-04-16T12:18:06;101431.0;;;25.18;24.98
48644;BME280;34928;37.302;-121.984;2023-04-16T12:28:27;101447.0;;;25.41;24.95
48644;BME280;34928;37.302;-121.984;2023-04-16T12:38:32;101446.0;;;25.47;24.96
48644;BME280;34928;37.302;-121.984;2023-04-16T12:48:37;101451.0;;;25.24;24.94
48644;BME280;34928;37.302;-121.984;2023-04-16T12:58:42;101465.0;;;25.45;24.87
48644;BME280;34928;37.302;-121.984;2023-04-16T13:08:47;101479.0;;;25.16;24.83
48644;BME280;34928;37.302;-121.984;2023-04-16T13:18:52;101484.0;;;25.36;24.86
48644;BME280;34928;37.302;-121.984;2023-04-16T13:28:58;101506.0;;;25.30;24.87
48644;BME280;34928;37.302;-121.984;2023-04-16T13:39:02;101498.0;;;25.02;24.81
48644;BME280;34928;37.302;-121.984;2023-04-16T13:49:07;101509.0;;;25.13;24.79
48644;BME280;34928;37.302;-121.984;2023-04-16T13:59:13;101528.0;;;24.94;24.67
48644;BME280;34928;37.302;-121.984;2023-04-16T14:09:17;101560.0;;;25.06;24.78
48644;BME280;34928;37.302;-121.984;2023-04-16T14:19:22;101587.0;;;24.73;24.72
48644;BME280;34928;37.302;-121.984;2023-04-16T14:29:28;101603.0;;;24.98;24.77
48644;BME280;34928;37.302;-121.984;2023-04-16T14:39:32;101622.0;;;24.93;24.76
48644;BME280;34928;37.302;-121.984;2023-04-16T14:49:37;101626.0;;;24.94;24.62
48644;BME280;34928;37.302;-121.984;2023-04-16T14:59:42;101644.0;;;24.82;24.65
48644;BME280;34928;37.302;-121.984;2023-04-16T15:09:47;101656.0;;;24.56;24.58
48644;BME280;34928;37.302;-121.984;2023-04-16T15:19:52;101657.0;;;25.03;24.53
48644;BME280;34928;37.302;-121.984;2023-04-16T15:29:58;101659.0;;;24.66;23.83
48644;BME280;34928;37.302;-121.984;2023-04-16T15:40:03;101657.0;;;24.60;23.66
48644;BME280;34928;37.302;-121.984;2023-04-16T15:50:08;101670.0;;;24.70;24.48
48644;BME280;34928;37.302;-121.984;2023-04-16T16:00:13;101681.0;;;24.82;24.61
48644;BME280;34928;37.302;-121.984;2023-04-16T16:10:17;101685.0;;;24.82;24.36
48644;BME280;34928;37.302;-121.984;2023-04-16T16:20:23;101687.0;;;24.78;24.32
48644;BME280;34928;37.302;-121.984;2023-04-16T16:30:27;101696.0;;;24.78;24.25
48644;BME280;34928;37.302;-121.984;2023-04-16T16:40:32;101695.0;;;24.55;24.14
48644;BME280;34928;37.302;-121.984;2023-04-16T16:50:38;101690.0;;;24.72;24.07
48644;BME280;34928;37.302;-121.984;2023-04-16T17:00:42;101689.0;;;24.64;23.93
48644;BME280;34928;37.302;-121.984;2023-04-16T17:10:47;101685.0;;;24.77;23.83
48644;BME280;34928;37.302;-121.984;2023-04-16T17:20:53;101684.0;;;24.62;23.43
48644;BME280;34928;37.302;-121.984;2023-04-16T17:30:58;101680.0;;;25.01;23.22
48644;BME280;34928;37.302;-121.984;2023-04-16T17:41:02;101677.0;;;24.91;23.10
48644;BME280;34928;37.302;-121.984;2023-04-16T17:51:11;101676.0;;;24.95;23.10
48644;BME280;34928;37.302;-121.984;2023-04-16T18:01:18;101663.0;;;25.30;22.98
48644;BME280;34928;37.302;-121.984;2023-04-16T18:11:23;101647.0;;;25.42;22.94
48644;BME280;34928;37.302;-121.984;2023-04-16T18:21:27;101647.0;;;24.98;23.20
48644;BME280;34928;37.302;-121.984;2023-04-16T18:31:33;101629.0;;;25.28;23.08
48644;BME280;34928;37.302;-121.984;2023-04-16T18:41:37;101616.0;;;25.53;23.13
48644;BME280;34928;37.302;-121.984;2023-04-16T18:51:42;101616.0;;;25.40;23.28
48644;BME280;34928;37.302;-121.984;2023-04-16T19:01:47;101601.0;;;25.68;23.40
48644;BME280;34928;37.302;-121.984;2023-04-16T19:11:52;101600.0;;;25.52;23.47
48644;BME280;34928;37.302;-121.984;2023-04-16T19:21:57;101596.0;;;25.65;23.38
48644;BME280;34928;37.302;-121.984;2023-04-16T19:32:02;101573.0;;;25.88;23.39
48644;BME280;34928;37.302;-121.984;2023-04-16T19:42:07;101555.0;;;25.45;23.42
48644;BME280;34928;37.302;-121.984;2023-04-16T19:52:13;101531.0;;;25.77;23.30
48644;BME280;34928;37.302;-121.984;2023-04-16T20:02:17;101524.0;;;25.84;23.27
48644;BME280;34928;37.302;-121.984;2023-04-16T20:12:22;101519.0;;;25.98;23.15
48644;BME280;34928;37.302;-121.984;2023-04-16T20:22:27;101503.0;;;25.90;23.26
48644;BME280;34928;37.302;-121.984;2023-04-16T20:32:32;101497.0;;;25.93;23.24
48644;BME280;34928;37.302;-121.984;2023-04-16T20:42:37;101489.0;;;25.76;23.21
48644;BME280;34928;37.302;-121.984;2023-04-16T20:52:42;101480.0;;;25.93;23.36
48644;BME280;34928;37.302;-121.984;2023-04-16T21:02:48;101470.0;;;26.14;23.20
48644;BME280;34928;37.302;-121.984;2023-04-16T21:12:53;101452.0;;;26.10;23.05
48644;BME280;34928;37.302;-121.984;2023-04-16T21:22:57;101448.0;;;26.36;23.10
48644;BME280;34928;37.302;-121.984;2023-04-16T21:33:03;101438.0;;;26.15;23.07
48644;BME280;34928;37.302;-121.984;2023-04-16T21:43:08;101427.0;;;26.43;23.01
48644;BME280;34928;37.302;-121.984;2023-04-16T21:53:13;101426.0;;;26.27;23.00
48644;BME280;34928;37.302;-121.984;2023-04-16T22:03:17;101408.0;;;26.57;22.96
48644;BME280;34928;37.302;-121.984;2023-04-16T22:13:23;101402.0;;;26.11;23.46
48644;BME280;34928;37.302;-121.984;2023-04-16T22:23:27;101394.0;;;26.26;22.96
48644;BME280;34928;37.302;-121.984;2023-04-16T22:33:32;101384.0;;;26.31;22.93
48644;BME280;34928;37.302;-121.984;2023-04-16T22:43:38;101372.0;;;26.82;23.20
48644;BME280;34928;37.302;-121.984;2023-04-16T22:53:42;101361.0;;;26.75;23.06
48644;BME280;34928;37.302;-121.984;2023-04-16T23:03:47;101352.0;;;26.60;23.04
48644;BME280;34928;37.302;-121.984;2023-04-16T23:13:57;101344.0;;;26.41;23.39
48644;BME280;34928;37.302;-121.984;2023-04-16T23:24:02;101326.0;;;26.78;23.09
48644;BME280;34928;37.302;-121.984;2023-04-16T23:34:08;101327.0;;;26.88;23.22
48644;BME280;34928;37.302;-121.984;2023-04-16T23:44:12;101319.0;;;27.05;23.15
48644;BME280;34928;37.302;-121.984;2023-04-16T23:54:18;101306.0;;;27.12;23.13
